Time;durP1;ratioP1;P1;durP2;ratioP2;P2;SDS_P1;SDS_P2;PMS_P1;PMS_P2;Temp;Humidity;BMP_temperature;BMP_pressure;BME280_temperature;BME280_humidity;BME280_pressure;Samples;Min_cycle;Max_cycle;Signal;HPM_P1;HPM_P2
2021/10/02 00:31:17;;;;;;;10.63;3.53;;;;;;;12.96;91.62;98511.91;5047237;28;20375;-65
2021/10/02 00:35:13;;;;;;;11.60;3.42;;;;;;;12.15;93.35;98514.31;5051274;28;20086;-65
2021/10/02 00:45:41;;;;;;;6.00;2.90;;;;;;;12.13;93.63;98525.81;5055000;28;20024;-65
2021/10/02 00:48:08;;;;;;;13.02;3.92;;;;;;;12.17;93.87;98520.41;5059024;28;20240;-65
2021/10/02 00:50:34;;;;;;;10.02;3.80;;;;;;;12.21;93.60;98519.41;5065584;28;20029;-65
2021/10/02 00:53:00;;;;;;;7.13;3.75;;;;;;;12.10;93.35;98520.63;5047601;28;20028;-65
2021/10/02 00:55:25;;;;;;;8.55;3.72;;;;;;;11.96;93.37;98518.34;5061496;28;20256;-65
2021/10/02 00:57:51;;;;;;;8.10;3.63;;;;;;;11.93;94.08;98507.88;5063597;28;20036;-65
2021/10/02 01:00:16;;;;;;;11.15;3.30;;;;;;;11.89;93.84;98508.00;5063836;28;20119;-65
2021/10/02 01:02:46;;;;;;;8.05;3.42;;;;;;;11.85;94.36;98503.72;5056702;28;20032;-65
2021/10/02 01:05:20;;;;;;;12.40;3.63;;;;;;;11.86;94.45;98501.03;5066215;23;20079;-88
2021/10/02 01:08:30;;;;;;;12.20;3.45;;;;;;;11.89;94.54;98503.59;5064551;28;20078;-89
2021/10/02 01:11:30;;;;;;;6.63;3.20;;;;;;;11.95;94.09;98497.28;5054383;28;20024;-89
2021/10/02 01:14:23;;;;;;;9.65;3.58;;;;;;;11.90;94.49;98496.56;5062778;28;20021;-88
2021/10/02 01:16:55;;;;;;;11.65;3.60;;;;;;;11.84;94.82;98491.44;5064014;28;20016;-88
2021/10/02 01:19:43;;;;;;;10.93;3.55;;;;;;;11.92;94.97;98494.72;5065550;28;20017;-88
2021/10/02 01:22:19;;;;;;;7.18;3.00;;;;;;;11.97;95.42;98493.72;5057497;28;20032;-88
2021/10/02 01:25:02;;;;;;;10.60;3.42;;;;;;;12.02;94.31;98483.91;5065138;28;20092;-88
2021/10/02 01:27:46;;;;;;;5.32;3.55;;;;;;;12.08;94.28;98481.09;5060269;28;20028;-88
2021/10/02 01:30:25;;;;;;;11.35;3.25;;;;;;;12.14;94.49;98480.94;5064157;28;20410;-88
2021/10/02 01:33:04;;;;;;;10.15;4.47;;;;;;;12.02;94.05;98475.97;5064204;28;20082;-88
2021/10/02 01:35:49;;;;;;;11.15;3.53;;;;;;;11.73;94.28;98461.84;5064518;28;20342;-88
2021/10/02 01:49:18;;;;;;;11.38;3.42;;;;;;;11.62;95.32;98456.88;5064690;28;20338;-88
2021/10/02 01:51:45;;;;;;;14.02;3.60;;;;;;;11.55;95.63;98457.88;5064568;28;20025;-88
2021/10/02 01:54:13;;;;;;;8.38;3.38;;;;;;;11.54;96.39;98460.56;5063454;28;20048;-88
2021/10/02 01:56:40;;;;;;;11.65;3.53;;;;;;;11.57;96.42;98455.22;5063470;28;20025;-88
2021/10/02 01:59:10;;;;;;;9.48;2.75;;;;;;;11.65;96.06;98448.91;5063631;28;20095;-89
2021/10/02 02:01:37;;;;;;;9.77;3.53;;;;;;;11.67;96.17;98446.22;5062556;28;20036;-88
2021/10/02 02:04:03;;;;;;;8.85;3.15;;;;;;;11.72;95.81;98460.13;5063109;28;20041;-88
2021/10/02 02:06:29;;;;;;;8.68;3.55;;;;;;;11.81;95.36;98466.03;5063288;28;20091;-88
2021/10/02 02:08:55;;;;;;;8.20;3.42;;;;;;;11.85;95.25;98457.13;5064359;28;20044;-88
2021/10/02 02:11:23;;;;;;;8.73;3.25;;;;;;;11.93;94.72;98460.41;5064154;28;20036;-88
2021/10/02 02:13:49;;;;;;;7.28;2.67;;;;;;;11.97;94.83;98456.81;5063142;28;20027;-88
2021/10/02 02:16:15;;;;;;;10.27;3.40;;;;;;;11.98;95.17;98449.72;5064615;28;20196;-88
2021/10/02 02:18:41;;;;;;;8.98;3.05;;;;;;;11.97;95.50;98451.53;5063019;28;20024;-88
2021/10/02 02:21:11;;;;;;;6.25;3.17;;;;;;;12.01;94.58;98453.16;5064129;28;20036;-88
2021/10/02 02:23:37;;;;;;;12.75;3.58;;;;;;;11.99;94.36;98454.97;5063293;28;20023;-88
2021/10/02 02:26:05;;;;;;;6.03;3.17;;;;;;;11.94;94.28;98451.59;5063494;28;20036;-89
2021/10/02 02:28:40;;;;;;;10.52;3.15;;;;;;;11.91;94.53;98451.69;5062708;28;20024;-88
2021/10/02 02:31:07;;;;;;;10.70;3.00;;;;;;;11.78;94.41;98445.03;5064315;28;20063;-88
2021/10/02 02:33:34;;;;;;;9.57;3.65;;;;;;;11.62;94.80;98443.69;5062707;28;20020;-89
2021/10/02 02:36:02;;;;;;;14.30;3.20;;;;;;;11.51;94.84;98442.19;5061103;28;20066;-89
2021/10/02 02:38:28;;;;;;;9.20;3.13;;;;;;;11.45;94.85;98451.13;5062468;28;20085;-89
2021/10/02 02:40:54;;;;;;;6.35;3.10;;;;;;;11.32;95.21;98449.72;5062671;28;20019;-89
2021/10/02 02:43:20;;;;;;;6.93;3.15;;;;;;;11.23;95.23;98449.94;5062650;28;20212;-89
2021/10/02 02:45:54;;;;;;;6.80;3.08;;;;;;;11.20;95.51;98455.28;5062515;28;20095;-89
2021/10/02 02:48:26;;;;;;;7.60;2.85;;;;;;;11.14;95.30;98451.94;5062414;28;20036;-88
2021/10/02 02:50:55;;;;;;;;;;;;;;;11.03;95.60;98457.47;5064053;28;20052;-89
2021/10/02 02:53:41;;;;;;;7.80;4.00;;;;;;;10.95;95.57;98447.13;5063609;28;19940;-88
2021/10/02 02:56:31;;;;;;;13.00;3.58;;;;;;;10.88;95.82;98447.28;5062689;28;20021;-89
2021/10/02 02:59:02;;;;;;;6.00;2.80;;;;;;;10.81;96.03;98445.72;5063536;28;20020;-88
2021/10/02 03:01:29;;;;;;;8.57;3.25;;;;;;;10.75;96.10;98451.13;5062456;28;20039;-89
2021/10/02 03:03:57;;;;;;;7.15;3.28;;;;;;;10.63;96.23;98446.13;5061923;28;20083;-89
2021/10/02 03:06:24;;;;;;;10.30;3.35;;;;;;;10.58;96.39;98445.38;5062362;28;20092;-88
2021/10/02 03:08:54;;;;;;;7.75;3.00;;;;;;;10.60;96.96;98446.22;5062160;28;20025;-88
2021/10/02 03:11:26;;;;;;;6.78;2.90;;;;;;;10.57;96.96;98441.03;5062089;28;20024;-88
2021/10/02 03:13:55;;;;;;;7.25;3.05;;;;;;;10.68;97.62;98442.50;5062081;28;20047;-88
2021/10/02 03:16:24;;;;;;;11.68;3.63;;;;;;;10.75;97.67;98451.13;5062356;28;20017;-88
2021/10/02 03:18:55;;;;;;;6.70;3.30;;;;;;;10.84;98.08;98443.88;5045629;28;20066;-88
2021/10/02 03:21:22;;;;;;;6.25;3.15;;;;;;;10.93;97.05;98440.16;5062602;28;20040;-88
2021/10/02 03:23:48;;;;;;;7.53;4.07;;;;;;;10.82;96.65;98436.91;5062125;28;20024;-88
2021/10/02 03:26:15;;;;;;;6.63;2.85;;;;;;;10.79;96.32;98437.84;5062133;28;20215;-88
2021/10/02 03:28:43;;;;;;;15.25;3.53;;;;;;;10.66;96.49;98440.78;5062199;28;20028;-88
2021/10/02 03:31:09;;;;;;;6.10;3.17;;;;;;;10.66;96.99;98443.41;5062238;28;20328;-88
2021/10/02 03:33:36;;;;;;;11.32;3.42;;;;;;;10.73;96.64;98437.13;5062404;28;20044;-89
2021/10/02 03:36:01;;;;;;;7.10;3.25;;;;;;;10.75;96.48;98445.84;5062730;28;20021;-88
2021/10/02 03:38:27;;;;;;;10.43;3.55;;;;;;;10.74;96.31;98439.75;5062836;28;20017;-88
2021/10/02 03:41:01;;;;;;;12.40;3.78;;;;;;;10.75;96.90;98441.47;5058554;28;20020;-88
2021/10/02 03:43:31;;;;;;;7.07;2.90;;;;;;;10.81;96.95;98435.19;5061652;28;20021;-88
2021/10/02 03:45:57;;;;;;;6.03;3.30;;;;;;;10.86;97.20;98434.16;5058075;28;20052;-88
2021/10/02 03:48:22;;;;;;;10.82;3.10;;;;;;;10.91;97.48;98437.56;5061902;28;20036;-88
2021/10/02 03:50:48;;;;;;;8.23;3.42;;;;;;;11.03;96.71;98436.41;5061776;28;20017;-88
2021/10/02 03:53:13;;;;;;;5.15;2.75;;;;;;;11.09;97.07;98431.00;5061876;28;20048;-89
2021/10/02 03:55:39;;;;;;;7.63;2.90;;;;;;;11.18;97.17;98430.78;5061987;28;20067;-88
2021/10/02 03:58:05;;;;;;;9.27;3.22;;;;;;;11.21;95.93;98420.16;5061722;28;20021;-89
2021/10/02 04:00:31;;;;;;;7.03;2.88;;;;;;;11.22;96.44;98413.09;5061861;28;20325;-88
2021/10/02 04:02:56;;;;;;;5.75;2.83;;;;;;;11.34;96.09;98399.63;5061929;28;20028;-88
2021/10/02 04:05:22;;;;;;;6.20;2.88;;;;;;;11.40;96.12;98404.72;5061869;28;20389;-89
2021/10/02 04:07:47;;;;;;;10.68;3.85;;;;;;;11.39;96.51;98409.13;5061775;28;20315;-89
2021/10/02 04:10:13;;;;;;;16.95;4.22;;;;;;;11.46;96.64;98405.44;5061547;28;20315;-88
2021/10/02 04:12:39;;;;;;;12.07;2.83;;;;;;;11.59;95.77;98406.84;5061982;28;20056;-88
2021/10/02 04:15:05;;;;;;;7.82;3.10;;;;;;;11.74;94.53;98398.53;5062839;28;20066;-89
2021/10/02 04:17:30;;;;;;;8.70;3.08;;;;;;;11.78;95.04;98387.00;5062665;28;20219;-89
2021/10/02 04:19:56;;;;;;;11.70;3.13;;;;;;;11.83;94.83;98390.38;5061738;28;20016;-89
2021/10/02 04:22:21;;;;;;;6.65;2.70;;;;;;;11.87;94.75;98391.16;5069179;28;20336;-88
2021/10/02 04:24:48;;;;;;;6.32;3.10;;;;;;;11.92;94.68;98394.50;5064469;28;20323;-89
2021/10/02 04:27:13;;;;;;;6.55;3.20;;;;;;;11.93;94.56;98391.84;5065445;28;20025;-88
2021/10/02 04:29:38;;;;;;;11.85;3.25;;;;;;;11.96;94.21;98397.03;5066226;28;20020;-88
2021/10/02 04:32:04;;;;;;;6.57;3.47;;;;;;;12.01;94.05;98388.97;5066295;28;20027;-89
2021/10/02 04:34:30;;;;;;;11.88;3.53;;;;;;;12.02;93.74;98386.31;5065351;28;20024;-89
2021/10/02 04:36:55;;;;;;;8.55;3.17;;;;;;;12.00;94.99;98388.13;5064957;28;20025;-89
2021/10/02 04:39:21;;;;;;;4.45;2.58;;;;;;;12.03;93.51;98379.25;5065072;28;20319;-89
2021/10/02 04:41:47;;;;;;;9.25;2.60;;;;;;;12.11;93.23;98385.16;5065951;28;20021;-89
2021/10/02 04:44:12;;;;;;;5.43;2.28;;;;;;;12.16;91.86;98378.88;5065015;28;20032;-89
2021/10/02 04:46:38;;;;;;;6.35;2.42;;;;;;;12.21;91.88;98379.56;5064769;28;20029;-89
2021/10/02 04:49:03;;;;;;;10.32;2.85;;;;;;;12.23;92.50;98383.03;5064949;28;20021;-89
2021/10/02 04:51:29;;;;;;;6.20;2.90;;;;;;;12.23;92.61;98383.03;5065026;28;20222;-89
2021/10/02 04:53:54;;;;;;;8.90;2.78;;;;;;;12.25;91.52;98394.41;5064930;28;20092;-89
2021/10/02 04:56:20;;;;;;;8.38;2.75;;;;;;;12.30;91.30;98391.63;5064599;28;20380;-89
2021/10/02 04:58:47;;;;;;;10.45;2.33;;;;;;;12.43;89.56;98392.97;5064554;28;20024;-89
2021/10/02 05:01:13;;;;;;;6.30;2.58;;;;;;;12.45;88.88;98386.75;5064702;28;20032;-89
2021/10/02 05:03:40;;;;;;;9.30;2.40;;;;;;;12.49;87.81;98385.75;5064371;28;20081;-89
2021/10/02 05:06:07;;;;;;;10.25;2.22;;;;;;;12.53;87.43;98386.53;5064975;28;20016;-89
2021/10/02 05:08:33;;;;;;;5.10;2.28;;;;;;;12.59;86.88;98383.66;5064644;28;20122;-89
2021/10/02 05:10:59;;;;;;;7.05;2.30;;;;;;;12.53;88.47;98379.44;5064759;28;20051;-89
2021/10/02 05:13:26;;;;;;;6.10;2.60;;;;;;;12.52;87.67;98376.88;5064654;28;20017;-88
2021/10/02 05:15:53;;;;;;;6.32;2.08;;;;;;;12.51;87.13;98377.78;5064750;28;20353;-89
2021/10/02 05:18:18;;;;;;;7.38;2.13;;;;;;;12.51;87.82;98376.03;5064519;28;20048;-89
2021/10/02 05:20:44;;;;;;;11.77;2.22;;;;;;;12.47;87.34;98369.09;5064224;28;20025;-88
2021/10/02 05:23:09;;;;;;;6.60;2.40;;;;;;;12.42;87.64;98371.03;5064147;28;20048;-89
2021/10/02 05:25:35;;;;;;;10.63;2.83;;;;;;;12.31;87.43;98373.09;5065593;28;20021;-88
2021/10/02 05:28:00;;;;;;;7.15;2.38;;;;;;;12.23;87.40;98366.34;5064161;28;20058;-88
2021/10/02 05:30:26;;;;;;;6.25;2.17;;;;;;;12.24;87.06;98370.69;5039041;28;20048;-88
2021/10/02 05:32:52;;;;;;;4.47;2.00;;;;;;;12.15;87.59;98371.84;5064048;28;20251;-88
2021/10/02 05:35:17;;;;;;;9.60;2.50;;;;;;;12.12;88.70;98371.94;5064310;28;20032;-89
2021/10/02 05:37:43;;;;;;;11.20;2.42;;;;;;;12.00;89.34;98369.69;5064533;28;20025;-89
2021/10/02 05:40:09;;;;;;;5.55;2.15;;;;;;;12.00;88.76;98359.13;5064446;28;20028;-89
2021/10/02 05:42:34;;;;;;;11.75;2.53;;;;;;;11.91;89.51;98371.69;5063972;28;20017;-88
2021/10/02 05:45:00;;;;;;;6.72;2.55;;;;;;;11.95;87.97;98374.22;5062381;28;20051;-88
2021/10/02 05:47:25;;;;;;;5.88;2.42;;;;;;;11.90;89.15;98373.47;5063840;28;20095;-88
2021/10/02 05:49:51;;;;;;;6.20;2.42;;;;;;;11.89;89.39;98369.09;5064033;28;20021;-89
2021/10/02 05:52:16;;;;;;;8.15;2.67;;;;;;;11.85;89.49;98366.59;5064849;28;20216;-88
2021/10/02 05:54:42;;;;;;;7.95;1.90;;;;;;;11.83;90.02;98374.53;5063294;28;20032;-88
2021/10/02 05:57:07;;;;;;;5.22;2.20;;;;;;;11.84;89.61;98372.78;5063940;28;20247;-88
2021/10/02 05:59:33;;;;;;;6.30;2.38;;;;;;;11.87;89.33;98367.44;5063549;28;20104;-88
2021/10/02 06:01:59;;;;;;;6.68;2.47;;;;;;;11.72;89.32;98371.38;5063465;28;20316;-88
2021/10/02 06:04:24;;;;;;;7.90;3.08;;;;;;;11.71;89.54;98382.78;5063243;28;20060;-88
2021/10/02 06:06:50;;;;;;;5.88;2.67;;;;;;;11.77;89.24;98374.72;5063369;28;20025;-88
2021/10/02 06:09:15;;;;;;;6.78;2.10;;;;;;;11.73;89.47;98373.09;5063564;28;20029;-88
2021/10/02 06:11:41;;;;;;;7.40;2.35;;;;;;;11.70;90.47;98383.72;5063175;28;20021;-88
2021/10/02 06:14:07;;;;;;;7.45;2.35;;;;;;;11.74;89.73;98380.06;5063101;28;20027;-88
2021/10/02 06:16:34;;;;;;;7.78;1.95;;;;;;;11.87;89.58;98381.44;5063594;28;20047;-88
2021/10/02 06:19:00;;;;;;;7.45;2.33;;;;;;;12.03;89.05;98381.91;5063106;28;20021;-88
2021/10/02 06:21:26;;;;;;;7.53;2.58;;;;;;;12.11;88.79;98391.31;5063015;28;20084;-88
2021/10/02 06:23:51;;;;;;;6.32;2.30;;;;;;;12.23;88.98;98390.97;5063437;28;20021;-88
2021/10/02 06:26:17;;;;;;;6.38;2.22;;;;;;;12.36;88.82;98387.03;5063177;28;20230;-89
2021/10/02 06:28:42;;;;;;;14.25;2.60;;;;;;;12.56;87.31;98379.38;5063288;28;20017;-88
2021/10/02 06:31:08;;;;;;;10.95;2.15;;;;;;;13.16;85.33;98380.97;5063162;28;20021;-89
2021/10/02 06:33:33;;;;;;;8.65;2.15;;;;;;;14.07;82.99;98368.84;5062114;28;20049;-89
2021/10/02 06:35:59;;;;;;;5.60;1.67;;;;;;;14.58;81.29;98364.22;5063005;28;20028;-89
2021/10/02 06:38:24;;;;;;;4.78;2.03;;;;;;;15.07;81.13;98364.00;5062569;28;20033;-89
2021/10/02 06:40:50;;;;;;;7.00;2.13;;;;;;;15.25;77.47;98352.59;5062548;28;20023;-89
2021/10/02 06:43:16;;;;;;;8.73;2.20;;;;;;;15.21;77.78;98355.47;5062769;28;20111;-89
2021/10/02 06:45:42;;;;;;;7.82;2.20;;;;;;;15.42;78.02;98358.09;5062359;28;20021;-89
2021/10/02 06:48:08;;;;;;;7.00;1.77;;;;;;;15.50;78.72;98355.97;5063476;28;20365;-89
2021/10/02 06:50:34;;;;;;;5.30;1.60;;;;;;;15.68;74.85;98363.13;5071526;28;20080;-89
2021/10/02 06:53:01;;;;;;;5.65;2.20;;;;;;;15.86;76.50;98367.63;5061351;28;20029;-89
2021/10/02 06:55:26;;;;;;;9.27;2.20;;;;;;;15.74;73.10;98365.53;5066852;28;20020;-88
2021/10/02 06:57:52;;;;;;;9.57;2.20;;;;;;;15.93;73.38;98368.22;5061898;28;20063;-89
2021/10/02 07:00:17;;;;;;;3.95;1.80;;;;;;;16.18;72.20;98372.34;5062573;28;20024;-88
2021/10/02 07:02:44;;;;;;;3.42;1.70;;;;;;;16.53;70.96;98368.97;5062454;28;20013;-88
2021/10/02 07:05:11;;;;;;;6.30;1.92;;;;;;;17.15;70.01;98364.09;5066258;28;20267;-88
2021/10/02 07:07:38;;;;;;;3.90;1.73;;;;;;;17.05;69.86;98364.63;5062700;28;20017;-88
2021/10/02 07:10:04;;;;;;;6.55;2.10;;;;;;;16.97;68.06;98365.03;5062143;28;20324;-89
2021/10/02 07:12:30;;;;;;;6.78;2.05;;;;;;;16.96;68.86;98363.28;5061847;28;20316;-88
2021/10/02 07:14:56;;;;;;;6.97;2.67;;;;;;;17.13;66.64;98355.34;5062835;28;20016;-89
2021/10/02 07:17:21;;;;;;;5.32;1.83;;;;;;;17.92;66.38;98351.25;5062824;28;20021;-89
2021/10/02 07:19:47;;;;;;;6.22;1.85;;;;;;;18.69;63.80;98338.09;5062498;28;20057;-89
2021/10/02 07:22:12;;;;;;;5.13;1.73;;;;;;;19.07;63.79;98346.56;5062622;28;20096;-88
2021/10/02 07:24:37;;;;;;;8.25;2.40;;;;;;;19.34;64.11;98355.69;5063467;28;20104;-89
2021/10/02 07:27:03;;;;;;;10.93;2.10;;;;;;;19.84;62.27;98345.47;5062664;28;20017;-89
2021/10/02 07:29:29;;;;;;;16.88;2.17;;;;;;;19.66;60.52;98335.94;5062315;28;20048;-89
2021/10/02 07:31:54;;;;;;;4.15;1.75;;;;;;;19.79;60.87;98341.38;5062672;28;20308;-89
2021/10/02 07:34:20;;;;;;;5.70;1.88;;;;;;;20.18;59.75;98342.50;5062267;28;20020;-89
2021/10/02 07:36:46;;;;;;;4.15;1.75;;;;;;;20.07;59.74;98342.28;5067706;28;20067;-89
2021/10/02 07:39:11;;;;;;;5.63;1.73;;;;;;;20.54;58.97;98342.00;5072596;28;20013;-89
2021/10/02 07:41:39;;;;;;;7.95;1.90;;;;;;;20.33;58.38;98346.88;5062933;28;20021;-89
2021/10/02 07:44:06;;;;;;;6.80;2.10;;;;;;;20.38;59.08;98347.44;5063418;28;20036;-89
2021/10/02 07:46:34;;;;;;;8.23;2.10;;;;;;;20.50;57.78;98341.31;5065050;28;20020;-89
2021/10/02 07:49:00;;;;;;;8.88;2.35;;;;;;;20.77;56.98;98346.72;5062286;28;20016;-89
2021/10/02 07:51:26;;;;;;;11.60;2.08;;;;;;;21.11;56.22;98339.09;5062017;28;20028;-89
2021/10/02 07:53:53;;;;;;;3.60;1.75;;;;;;;20.72;56.62;98336.31;5063945;28;20215;-89
2021/10/02 07:56:20;;;;;;;4.93;1.90;;;;;;;21.33;56.74;98331.34;5062613;28;20102;-89
2021/10/02 07:58:49;;;;;;;5.60;2.38;;;;;;;21.26;55.75;98332.72;5063861;28;20381;-89
2021/10/02 08:01:15;;;;;;;3.75;1.75;;;;;;;21.71;56.38;98333.25;5065635;28;20361;-89
2021/10/02 08:03:41;;;;;;;8.75;2.17;;;;;;;21.87;55.39;98332.13;5064871;28;20094;-89
2021/10/02 08:06:08;;;;;;;9.93;2.70;;;;;;;22.25;52.96;98329.44;5064703;28;20012;-89
2021/10/02 08:08:34;;;;;;;12.02;3.13;;;;;;;22.71;53.03;98335.91;5064509;28;20023;-89
2021/10/02 08:11:01;;;;;;;6.03;2.03;;;;;;;22.87;52.35;98333.81;5058835;28;20025;-89
2021/10/02 08:13:26;;;;;;;6.68;2.25;;;;;;;22.84;52.64;98325.97;5063588;28;20017;-89
2021/10/02 08:16:00;;;;;;;6.68;2.25;;;;;;;23.28;51.41;98320.88;5065948;28;20388;-89
2021/10/02 08:18:30;;;;;;;6.45;2.13;;;;;;;23.20;52.01;98323.28;5065060;28;20062;-89
2021/10/02 08:20:58;;;;;;;12.25;2.03;;;;;;;23.66;51.28;98321.53;5058144;28;20304;-90
2021/10/02 08:23:25;;;;;;;6.90;2.00;;;;;;;23.47;50.20;98320.38;5064810;28;20072;-90
2021/10/02 08:25:53;;;;;;;6.57;2.30;;;;;;;23.53;50.58;98328.81;5065297;28;20021;-89
2021/10/02 08:28:19;;;;;;;7.35;2.25;;;;;;;23.59;51.04;98339.09;5062169;28;20017;-89
2021/10/02 08:30:46;;;;;;;6.75;1.95;;;;;;;23.44;50.18;98340.25;5064894;28;20024;-89
2021/10/02 08:33:12;;;;;;;11.35;2.00;;;;;;;23.67;51.13;98338.50;5064820;28;20114;-89
2021/10/02 08:35:40;;;;;;;6.55;2.00;;;;;;;23.86;49.78;98336.13;5066101;28;20017;-89
2021/10/02 08:38:07;;;;;;;6.55;1.88;;;;;;;23.54;51.01;98327.81;5064730;28;20025;-89
2021/10/02 08:40:33;;;;;;;3.90;1.83;;;;;;;23.52;50.64;98326.25;5064968;28;20032;-89
2021/10/02 08:43:00;;;;;;;8.43;1.83;;;;;;;23.17;50.99;98321.69;5064449;28;20032;-88
2021/10/02 08:45:28;;;;;;;6.30;2.00;;;;;;;23.63;49.70;98313.69;5064621;28;20028;-88
2021/10/02 08:47:56;;;;;;;6.93;2.25;;;;;;;23.96;49.75;98315.63;5064581;28;20308;-88
2021/10/02 08:50:21;;;;;;;3.90;1.63;;;;;;;23.63;49.40;98311.00;5064603;28;20021;-88
2021/10/02 08:52:48;;;;;;;5.60;1.67;;;;;;;23.52;50.55;98304.75;5064039;28;20381;-88
2021/10/02 08:55:14;;;;;;;7.60;2.15;;;;;;;23.37;51.37;98304.09;5063908;28;20028;-88
2021/10/02 08:57:41;;;;;;;5.70;1.63;;;;;;;23.76;49.95;98301.00;5063852;28;20024;-88
2021/10/02 09:00:10;;;;;;;4.43;1.90;;;;;;;23.87;50.89;98317.19;5064698;28;20017;-88
2021/10/02 09:02:36;;;;;;;4.70;1.85;;;;;;;24.09;47.48;98314.56;5064747;28;20023;-88
2021/10/02 09:05:06;;;;;;;8.13;2.20;;;;;;;23.96;49.18;98311.13;5065286;28;20295;-88
2021/10/02 09:07:32;;;;;;;5.10;1.88;;;;;;;24.17;48.52;98309.41;5067090;28;20024;-89
2021/10/02 09:10:02;;;;;;;4.30;1.80;;;;;;;23.69;49.73;98302.47;5064079;28;20255;-89
2021/10/02 09:12:28;;;;;;;4.55;1.90;;;;;;;24.13;49.84;98297.19;5060858;28;20391;-89
2021/10/02 09:14:56;;;;;;;5.45;1.63;;;;;;;24.07;49.72;98286.94;5063633;28;20016;-89
2021/10/02 09:17:24;;;;;;;5.20;1.92;;;;;;;23.66;50.92;98291.97;5064121;28;20320;-89
2021/10/02 09:19:50;;;;;;;7.55;1.92;;;;;;;23.14;51.18;98287.00;5064392;28;20013;-89
2021/10/02 09:22:22;;;;;;;7.38;2.13;;;;;;;23.51;50.23;98286.91;5063215;28;20043;-89
2021/10/02 09:24:49;;;;;;;6.07;2.00;;;;;;;23.64;50.43;98290.38;5063808;28;20016;-89
2021/10/02 09:27:22;;;;;;;6.30;1.83;;;;;;;24.00;50.37;98284.84;5065391;28;20209;-89
2021/10/02 09:30:11;;;;;;;8.75;2.13;;;;;;;23.85;48.86;98276.13;5061171;28;20216;-90
2021/10/02 09:32:44;;;;;;;5.68;1.48;;;;;;;23.77;49.16;98266.94;5063508;28;20044;-89
2021/10/02 09:35:17;;;;;;;4.93;1.80;;;;;;;23.57;49.23;98255.03;5068435;28;20224;-90
2021/10/02 09:37:51;;;;;;;4.47;1.95;;;;;;;24.05;49.57;98245.88;5064032;28;20045;-89
2021/10/02 09:40:20;;;;;;;4.65;1.60;;;;;;;24.40;48.30;98240.34;5063667;28;20103;-90
2021/10/02 09:42:50;;;;;;;7.65;1.90;;;;;;;24.32;47.64;98249.03;5061423;28;20051;-89
2021/10/02 09:45:18;;;;;;;6.50;2.00;;;;;;;24.55;48.37;98239.94;5063841;28;20020;-90
2021/10/02 09:47:51;;;;;;;6.63;2.15;;;;;;;24.28;48.41;98246.72;5063392;28;20017;-89
2021/10/02 09:50:20;;;;;;;4.00;1.80;;;;;;;23.46;49.54;98240.75;5063393;28;20036;-90
2021/10/02 09:52:50;;;;;;;4.68;2.00;;;;;;;23.64;50.19;98248.25;5071625;28;20208;-90
2021/10/02 09:55:26;;;;;;;6.88;1.70;;;;;;;23.23;51.58;98239.84;5064127;28;20316;-89
2021/10/02 09:57:55;;;;;;;5.10;1.90;;;;;;;23.09;51.81;98239.97;5065143;28;20063;-89
2021/10/02 10:00:26;;;;;;;8.82;2.35;;;;;;;23.50;50.67;98226.94;5063460;28;20091;-88
2021/10/02 10:02:52;;;;;;;5.38;1.98;;;;;;;23.99;50.13;98242.81;5063693;28;20040;-89
2021/10/02 10:05:18;;;;;;;7.28;2.13;;;;;;;23.51;52.25;98231.38;5063685;28;20040;-89
2021/10/02 10:07:52;;;;;;;4.20;1.80;;;;;;;23.44;51.22;98232.78;5062621;28;20091;-88
2021/10/02 10:10:21;;;;;;;7.05;2.40;;;;;;;23.34;52.39;98234.47;5061049;28;20028;-91
2021/10/02 10:12:47;;;;;;;4.82;1.77;;;;;;;23.32;52.99;98214.09;5062429;28;20231;-88
2021/10/02 10:15:30;;;;;;;3.67;1.60;;;;;;;22.62;52.36;98223.91;5063769;28;20043;-88
2021/10/02 10:17:57;;;;;;;5.47;1.98;;;;;;;22.38;53.33;98217.63;5043763;28;20025;-88
2021/10/02 10:20:38;;;;;;;5.95;1.90;;;;;;;21.97;54.72;98212.59;5043560;28;20055;-88
2021/10/02 10:23:04;;;;;;;7.28;1.98;;;;;;;22.16;54.82;98218.34;5043447;28;20032;-88
2021/10/02 10:25:30;;;;;;;5.40;2.00;;;;;;;22.28;55.34;98220.16;5046337;28;20239;-88
2021/10/02 10:28:01;;;;;;;11.43;2.00;;;;;;;22.53;55.01;98211.19;5063529;28;20020;-88
2021/10/02 10:30:29;;;;;;;9.70;2.53;;;;;;;23.02;52.94;98209.22;5063513;28;20028;-88
2021/10/02 10:33:04;;;;;;;6.93;1.45;;;;;;;23.40;52.92;98201.78;5064486;28;20021;-88
2021/10/02 10:35:44;;;;;;;9.35;2.17;;;;;;;23.14;52.33;98192.16;5063469;28;20219;-88
2021/10/02 10:38:14;;;;;;;4.95;1.55;;;;;;;23.16;52.72;98201.81;5063121;28;20112;-88
2021/10/02 10:40:39;;;;;;;6.18;1.40;;;;;;;22.84;54.05;98199.84;5064328;28;20104;-88
2021/10/02 10:43:05;;;;;;;6.28;1.77;;;;;;;23.33;52.19;98187.13;5062928;28;20013;-88
2021/10/02 10:45:31;;;;;;;6.53;1.90;;;;;;;22.95;52.96;98182.00;5064164;28;20312;-88
2021/10/02 10:47:57;;;;;;;4.55;1.55;;;;;;;22.89;52.94;98177.09;5062083;28;20312;-88
2021/10/02 10:50:26;;;;;;;9.82;1.60;;;;;;;22.72;52.97;98173.97;5063122;28;20055;-88
2021/10/02 10:52:52;;;;;;;3.58;1.58;;;;;;;22.84;53.95;98173.00;5062986;28;20071;-88
2021/10/02 10:55:22;;;;;;;3.85;1.38;;;;;;;22.71;52.93;98177.59;5063057;28;20017;-88
2021/10/02 10:57:50;;;;;;;5.70;1.63;;;;;;;22.87;53.07;98172.78;5063229;28;20016;-88
2021/10/02 11:00:37;;;;;;;6.00;1.40;;;;;;;22.69;53.70;98163.47;5064166;28;20017;-88
2021/10/02 11:03:04;;;;;;;11.73;1.50;;;;;;;22.40;54.65;98154.03;5063031;28;20376;-88
2021/10/02 11:05:44;;;;;;;5.80;1.42;;;;;;;21.90;55.53;98156.88;5062726;28;20045;-88
2021/10/02 11:08:13;;;;;;;7.40;1.50;;;;;;;21.18;56.51;98153.06;5061923;28;20312;-88
2021/10/02 11:10:41;;;;;;;3.30;1.30;;;;;;;21.25;55.27;98148.97;5063125;28;20027;-88
2021/10/02 11:13:33;;;;;;;6.05;1.45;;;;;;;21.26;57.20;98139.97;5062267;28;20024;-88
2021/10/02 11:16:30;;;;;;;20.33;2.10;;;;;;;21.11;56.94;98141.03;5035973;28;20028;-88
2021/10/02 11:18:56;;;;;;;4.95;1.27;;;;;;;21.04;57.35;98138.91;5057973;28;20099;-87
2021/10/02 11:21:22;;;;;;;3.15;1.33;;;;;;;21.04;57.65;98129.06;5062337;28;20025;-87
2021/10/02 11:24:11;;;;;;;3.33;1.50;;;;;;;21.09;56.97;98116.22;5062617;28;20279;-87
2021/10/02 11:26:40;;;;;;;3.92;1.45;;;;;;;20.83;57.12;98122.47;5062414;28;20212;-87
2021/10/02 11:29:19;;;;;;;4.22;1.33;;;;;;;21.26;56.14;98123.91;5061514;28;20017;-87
2021/10/02 11:31:47;;;;;;;7.05;1.48;;;;;;;21.40;57.59;98109.56;5062229;28;20033;-88
2021/10/02 11:34:21;;;;;;;5.78;1.50;;;;;;;21.55;57.21;98096.91;5066238;28;20320;-88
2021/10/02 11:36:55;;;;;;;5.65;1.60;;;;;;;22.01;56.60;98095.28;5067507;28;20023;-88
2021/10/02 11:39:26;;;;;;;4.95;1.88;;;;;;;21.86;56.35;98096.44;5063644;28;20337;-88
2021/10/02 11:41:58;;;;;;;3.85;1.50;;;;;;;22.03;55.96;98082.66;5072744;28;20016;-88
2021/10/02 11:44:32;;;;;;;2.80;1.73;;;;;;;21.95;55.46;98085.88;5066373;28;20029;-88
2021/10/02 11:47:29;;;;;;;4.20;1.40;;;;;;;21.61;57.06;98093.78;5069050;28;20271;-88
2021/10/02 11:50:07;;;;;;;5.00;1.60;;;;;;;21.74;55.50;98091.97;5066218;28;20357;-88
2021/10/02 11:52:38;;;;;;;5.95;1.23;;;;;;;21.37;56.50;98084.81;5066469;28;20052;-88
2021/10/02 11:55:41;;;;;;;5.80;1.67;;;;;;;21.26;57.59;98081.09;5069337;28;20025;-88
2021/10/02 11:58:09;;;;;;;6.78;1.42;;;;;;;21.47;56.03;98072.47;5066039;28;20017;-88
2021/10/02 12:00:43;;;;;;;3.40;1.27;;;;;;;21.79;56.98;98066.53;5066064;28;20204;-88
2021/10/02 12:03:14;;;;;;;3.28;1.30;;;;;;;21.91;56.62;98064.78;5062080;28;20092;-88
2021/10/02 12:05:48;;;;;;;5.03;1.90;;;;;;;21.88;55.04;98056.97;5064985;28;20037;-88
2021/10/02 12:08:14;;;;;;;5.07;1.15;;;;;;;21.79;56.83;98052.28;5064196;28;20021;-88
2021/10/02 12:11:02;;;;;;;4.50;1.30;;;;;;;21.73;57.02;98066.13;5064529;28;20104;-87
2021/10/02 12:13:28;;;;;;;4.35;1.17;;;;;;;21.60;55.82;98062.59;5065860;28;20067;-88
2021/10/02 12:16:17;;;;;;;6.00;1.10;;;;;;;21.90;57.13;98049.69;5065565;28;20017;-88
2021/10/02 12:19:07;;;;;;;3.42;1.20;;;;;;;21.82;55.40;98052.06;5064453;28;20041;-88
2021/10/02 12:21:44;;;;;;;5.55;1.30;;;;;;;21.75;56.09;98050.81;5065628;28;20025;-88
2021/10/02 12:24:16;;;;;;;3.10;1.13;;;;;;;21.73;55.18;98036.66;5065515;28;20087;-88
2021/10/02 12:26:51;;;;;;;6.57;1.73;;;;;;;21.54;55.61;98026.41;5065648;28;20016;-88
2021/10/02 12:29:19;;;;;;;3.28;0.98;;;;;;;21.58;56.22;98027.06;5064502;28;20020;-88
2021/10/02 12:32:09;;;;;;;4.07;1.00;;;;;;;21.58;56.59;98027.06;5065452;28;20083;-88